createdAt,value
2018-06-21T00:00:33.881Z,4.00
2018-06-21T00:01:33.911Z,4.00
2018-06-21T00:02:33.935Z,8.00
2018-06-21T00:03:33.964Z,8.00
2018-06-21T00:04:34.023Z,8.00
2018-06-21T00:05:34.018Z,8.00
2018-06-21T00:06:34.047Z,4.00
2018-06-21T00:07:34.074Z,8.00
2018-06-21T00:08:34.101Z,8.00
2018-06-21T00:09:34.128Z,8.00
2018-06-21T00:10:34.157Z,8.00
2018-06-21T00:11:34.185Z,8.00
2018-06-21T00:12:34.210Z,8.00
2018-06-21T00:13:34.240Z,8.00
2018-06-21T00:14:34.266Z,8.00
2018-06-21T00:15:34.295Z,12.00
2018-06-21T00:16:34.321Z,12.00
2018-06-21T00:17:34.350Z,8.00
2018-06-21T00:18:34.414Z,8.00
2018-06-21T00:19:34.406Z,12.00
2018-06-21T00:20:34.432Z,12.00
2018-06-21T00:21:34.460Z,8.00
2018-06-21T00:22:34.489Z,12.00
2018-06-21T00:23:34.529Z,12.00
2018-06-21T00:24:34.543Z,12.00
2018-06-21T00:25:34.572Z,12.00
2018-06-21T00:26:34.599Z,12.00
2018-06-21T00:27:34.627Z,12.00
2018-06-21T00:28:34.689Z,16.00
2018-06-21T00:29:34.683Z,16.00
2018-06-21T00:30:34.710Z,16.00
2018-06-21T00:31:34.738Z,12.00
2018-06-21T00:32:34.808Z,16.00
2018-06-21T00:33:34.822Z,16.00
2018-06-21T00:34:34.820Z,16.00
2018-06-21T00:35:34.849Z,20.00
2018-06-21T00:36:34.876Z,16.00
2018-06-21T00:37:34.901Z,20.00
2018-06-21T00:38:34.929Z,24.00
2018-06-21T00:39:34.958Z,24.00
2018-06-21T00:40:34.985Z,24.00
2018-06-21T00:41:35.013Z,24.00
2018-06-21T00:42:35.039Z,32.00
2018-06-21T00:43:35.068Z,28.00
2018-06-21T00:44:35.094Z,32.00
2018-06-21T00:45:35.130Z,32.00
2018-06-21T00:46:35.149Z,36.00
2018-06-21T00:47:35.177Z,36.00
2018-06-21T00:48:35.206Z,40.00
2018-06-21T00:49:35.232Z,44.00
2018-06-21T00:50:35.261Z,44.00
2018-06-21T00:51:35.289Z,44.00
2018-06-21T00:52:35.316Z,44.00
2018-06-21T00:53:35.342Z,48.00
2018-06-21T00:54:35.371Z,48.00
2018-06-21T00:55:35.420Z,56.00
2018-06-21T00:56:35.428Z,56.00
2018-06-21T00:57:35.454Z,56.00
2018-06-21T00:58:35.481Z,60.00
2018-06-21T00:59:35.508Z,60.00
2018-06-21T01:00:35.534Z,56.00
2018-06-21T01:01:35.562Z,56.00
2018-06-21T01:02:35.591Z,56.00
2018-06-21T01:03:35.619Z,56.00
2018-06-21T01:04:35.647Z,60.00
2018-06-21T01:05:35.687Z,72.00
2018-06-21T01:06:35.702Z,68.00
2018-06-21T01:07:35.728Z,64.00
2018-06-21T01:08:35.755Z,56.00
2018-06-21T01:09:35.784Z,48.00
2018-06-21T01:10:35.812Z,44.00
2018-06-21T01:11:35.844Z,44.00
2018-06-21T01:12:35.868Z,48.00
2018-06-21T01:13:35.895Z,56.00
2018-06-21T01:14:35.920Z,56.00
2018-06-21T01:15:35.997Z,60.00
2018-06-21T01:16:35.976Z,60.00
2018-06-21T01:17:36.005Z,60.00
2018-06-21T01:18:36.047Z,60.00
2018-06-21T01:19:36.061Z,56.00
2018-06-21T01:20:36.087Z,56.00
2018-06-21T01:21:36.113Z,56.00
2018-06-21T01:22:36.143Z,56.00
2018-06-21T01:23:36.183Z,64.00
2018-06-21T01:24:36.198Z,64.00
2018-06-21T01:25:36.228Z,68.00
2018-06-21T01:26:36.251Z,72.00
2018-06-21T01:27:36.280Z,72.00
2018-06-21T01:28:36.306Z,76.00
2018-06-21T01:29:36.363Z,84.00
2018-06-21T01:30:36.363Z,96.00
2018-06-21T01:31:36.392Z,108.00
2018-06-21T01:32:36.418Z,128.00
2018-06-21T01:33:36.445Z,156.00
2018-06-21T01:34:36.473Z,164.00
2018-06-21T01:35:36.500Z,156.00
2018-06-21T01:36:36.528Z,132.00
2018-06-21T01:37:36.556Z,128.00
2018-06-21T01:38:36.583Z,124.00
2018-06-21T01:39:36.615Z,124.00
2018-06-21T01:40:36.654Z,116.00
2018-06-21T01:41:36.666Z,108.00
2018-06-21T01:42:36.699Z,104.00
2018-06-21T01:43:36.721Z,104.00
2018-06-21T01:44:36.748Z,108.00
2018-06-21T01:45:36.775Z,112.00
2018-06-21T01:46:36.804Z,116.00
2018-06-21T01:47:36.829Z,120.00
2018-06-21T01:48:36.860Z,116.00
2018-06-21T01:49:36.885Z,108.00
2018-06-21T01:50:36.914Z,108.00
2018-06-21T01:51:36.939Z,112.00
2018-06-21T01:52:36.969Z,108.00
2018-06-21T01:53:36.994Z,112.00
2018-06-21T01:54:37.023Z,120.00
2018-06-21T01:55:37.051Z,124.00
2018-06-21T01:56:37.078Z,124.00
2018-06-21T01:57:37.105Z,136.00
2018-06-21T01:58:37.133Z,144.00
2018-06-21T01:59:37.161Z,132.00
2018-06-21T02:00:37.186Z,120.00
2018-06-21T02:01:37.216Z,116.00
2018-06-21T02:02:37.242Z,124.00
2018-06-21T02:03:37.271Z,132.00
2018-06-21T02:04:37.296Z,108.00
2018-06-21T02:05:37.326Z,96.00
2018-06-21T02:06:37.370Z,100.00
2018-06-21T02:07:37.380Z,120.00
2018-06-21T02:08:37.406Z,144.00
2018-06-21T02:09:37.439Z,124.00
2018-06-21T02:10:37.463Z,136.00
2018-06-21T02:11:37.489Z,152.00
2018-06-21T02:12:37.516Z,152.00
2018-06-21T02:13:37.546Z,160.00
2018-06-21T02:14:37.573Z,168.00
2018-06-21T02:15:37.636Z,176.00
2018-06-21T02:16:37.626Z,192.00
2018-06-21T02:17:37.656Z,216.00
2018-06-21T02:18:37.686Z,224.00
2018-06-21T02:19:37.714Z,236.00
2018-06-21T02:20:37.736Z,216.00
2018-06-21T02:21:37.765Z,232.00
2018-06-21T02:22:37.794Z,220.00
2018-06-21T02:23:37.822Z,208.00
2018-06-21T02:24:37.848Z,260.00
2018-06-21T02:25:37.875Z,280.00
2018-06-21T02:26:37.902Z,292.00
2018-06-21T02:27:37.930Z,280.00
2018-06-21T02:28:37.957Z,252.00
2018-06-21T02:29:37.986Z,256.00
2018-06-21T02:30:38.015Z,152.00
2018-06-21T02:31:38.042Z,176.00
2018-06-21T02:32:38.068Z,256.00
2018-06-21T02:33:38.097Z,364.00
2018-06-21T02:34:38.123Z,388.00
2018-06-21T02:35:38.151Z,472.00
2018-06-21T02:36:38.178Z,560.00
2018-06-21T02:37:38.206Z,608.00
2018-06-21T02:38:38.232Z,616.00
2018-06-21T02:39:38.261Z,684.00
2018-06-21T02:40:38.301Z,748.00
2018-06-21T02:41:38.315Z,668.00
2018-06-21T02:42:38.342Z,576.00
2018-06-21T02:43:38.413Z,572.00
2018-06-21T02:44:38.397Z,308.00
2018-06-21T02:45:38.426Z,592.00
2018-06-21T02:46:38.453Z,668.00
2018-06-21T02:47:38.483Z,748.00
2018-06-21T02:48:38.518Z,792.00
2018-06-21T02:49:38.556Z,960.00
2018-06-21T02:50:38.563Z,1040.00
2018-06-21T02:51:38.592Z,1060.00
2018-06-21T02:52:38.618Z,960.00
2018-06-21T02:53:38.648Z,1104.00
2018-06-21T02:54:38.675Z,1408.00
2018-06-21T02:55:38.702Z,1716.00
2018-06-21T02:56:38.729Z,1852.00
2018-06-21T02:57:38.757Z,1908.00
2018-06-21T02:58:38.815Z,1908.00
2018-06-21T02:59:38.813Z,2008.00
2018-06-21T03:00:38.855Z,2052.00
2018-06-21T03:01:38.868Z,2084.00
2018-06-21T03:02:38.896Z,2124.00
2018-06-21T03:03:38.924Z,2164.00
2018-06-21T03:04:38.951Z,2208.00
2018-06-21T03:05:39.003Z,2236.00
2018-06-21T03:06:39.019Z,2268.00
2018-06-21T03:07:39.036Z,2292.00
2018-06-21T03:08:39.062Z,2332.00
2018-06-21T03:09:39.089Z,2356.00
2018-06-21T03:10:39.124Z,2376.00
2018-06-21T03:11:39.145Z,2392.00
2018-06-21T03:12:39.172Z,2408.00
2018-06-21T03:13:39.204Z,2424.00
2018-06-21T03:14:39.229Z,2440.00
2018-06-21T03:15:39.276Z,2456.00
2018-06-21T03:16:39.282Z,2480.00
2018-06-21T03:17:39.313Z,2516.00
2018-06-21T03:18:39.340Z,2544.00
2018-06-21T03:19:39.367Z,2588.00
2018-06-21T03:20:39.394Z,2616.00
2018-06-21T03:21:39.424Z,2648.00
2018-06-21T03:22:39.451Z,2676.00
2018-06-21T03:23:39.478Z,2684.00
2018-06-21T03:24:39.506Z,2692.00
2018-06-21T03:25:39.536Z,2688.00
2018-06-21T03:26:39.561Z,2668.00
2018-06-21T03:27:39.590Z,2536.00
2018-06-21T03:28:39.618Z,1820.00
2018-06-21T03:29:39.652Z,844.00
2018-06-21T03:30:39.676Z,1552.00
2018-06-21T03:31:39.703Z,504.00
2018-06-21T03:32:39.733Z,988.00
2018-06-21T03:33:39.756Z,892.00
2018-06-21T03:34:39.790Z,676.00
2018-06-21T03:35:39.815Z,800.00
2018-06-21T03:36:39.845Z,568.00
2018-06-21T03:37:39.869Z,784.00
2018-06-21T03:38:39.897Z,992.00
2018-06-21T03:39:39.926Z,904.00
2018-06-21T03:40:39.956Z,968.00
2018-06-21T03:41:39.985Z,488.00
2018-06-21T03:42:40.013Z,468.00
2018-06-21T03:43:40.038Z,728.00
2018-06-21T03:44:40.067Z,416.00
2018-06-21T03:45:40.095Z,376.00
2018-06-21T03:46:40.123Z,416.00
2018-06-21T03:47:40.178Z,612.00
2018-06-21T03:48:40.178Z,456.00
2018-06-21T03:49:40.206Z,432.00
2018-06-21T03:50:40.233Z,408.00
2018-06-21T03:51:40.263Z,380.00
2018-06-21T03:52:40.288Z,384.00
2018-06-21T03:53:40.316Z,380.00
2018-06-21T03:54:40.345Z,404.00
2018-06-21T03:55:40.401Z,532.00
2018-06-21T03:56:40.429Z,884.00
2018-06-21T03:57:40.429Z,904.00
2018-06-21T03:58:40.457Z,996.00
2018-06-21T03:59:40.486Z,1132.00
2018-06-21T04:00:40.514Z,1348.00
2018-06-21T04:01:40.543Z,1720.00
2018-06-21T04:02:40.569Z,1924.00
2018-06-21T04:03:40.597Z,1800.00
2018-06-21T04:04:40.626Z,1488.00
2018-06-21T04:05:40.654Z,1236.00
2018-06-21T04:06:40.681Z,1224.00
2018-06-21T04:07:40.711Z,1188.00
2018-06-21T04:08:40.738Z,1260.00
2018-06-21T04:09:40.765Z,1360.00
2018-06-21T04:10:40.795Z,1608.00
2018-06-21T04:11:40.821Z,1800.00
2018-06-21T04:12:40.849Z,1604.00
2018-06-21T04:13:40.877Z,1496.00
2018-06-21T04:14:40.937Z,1928.00
2018-06-21T04:15:40.945Z,2288.00
2018-06-21T04:16:40.961Z,2568.00
2018-06-21T04:17:40.989Z,2536.00
2018-06-21T04:18:41.017Z,2148.00
2018-06-21T04:19:41.046Z,2432.00
2018-06-21T04:20:41.073Z,2912.00
2018-06-21T04:21:41.124Z,2916.00
2018-06-21T04:22:41.133Z,2656.00
2018-06-21T04:23:41.187Z,2548.00
2018-06-21T04:24:41.186Z,2596.00
2018-06-21T04:25:41.215Z,2512.00
2018-06-21T04:26:41.244Z,2296.00
2018-06-21T04:27:41.273Z,2340.00
2018-06-21T04:28:41.299Z,2704.00
2018-06-21T04:29:41.331Z,2956.00
2018-06-21T04:30:41.356Z,3184.00
2018-06-21T04:31:41.382Z,3260.00
2018-06-21T04:32:41.410Z,3244.00
2018-06-21T04:33:41.440Z,3192.00
2018-06-21T04:34:41.468Z,3140.00
2018-06-21T04:35:41.497Z,3104.00
2018-06-21T04:36:41.549Z,3000.00
2018-06-21T04:37:41.553Z,2988.00
2018-06-21T04:38:41.581Z,2956.00
2018-06-21T04:39:41.609Z,2900.00
2018-06-21T04:40:41.636Z,2856.00
2018-06-21T04:41:41.665Z,2784.00
2018-06-21T04:42:41.727Z,2728.00
2018-06-21T04:43:41.721Z,2664.00
2018-06-21T04:44:41.750Z,2564.00
2018-06-21T04:45:41.780Z,2480.00
2018-06-21T04:46:41.807Z,2352.00
2018-06-21T04:47:41.835Z,1932.00
2018-06-21T04:48:41.862Z,1312.00
2018-06-21T04:49:41.901Z,1276.00
2018-06-21T04:50:41.919Z,1336.00
2018-06-21T04:51:41.949Z,1132.00
2018-06-21T04:52:42.021Z,664.00
2018-06-21T04:53:42.005Z,444.00
2018-06-21T04:54:42.111Z,424.00
2018-06-21T04:55:42.060Z,440.00
2018-06-21T04:56:42.088Z,460.00
2018-06-21T04:57:42.139Z,500.00
2018-06-21T04:58:42.146Z,488.00
2018-06-21T04:59:42.174Z,484.00
2018-06-21T05:00:42.202Z,544.00
2018-06-21T05:01:42.230Z,648.00
2018-06-21T05:02:42.260Z,772.00
2018-06-21T05:03:42.287Z,816.00
2018-06-21T05:04:42.316Z,824.00
2018-06-21T05:05:42.344Z,848.00
2018-06-21T05:06:42.377Z,980.00
2018-06-21T05:07:42.401Z,1200.00
2018-06-21T05:08:42.428Z,1452.00
2018-06-21T05:09:42.459Z,1708.00
2018-06-21T05:10:42.485Z,1800.00
2018-06-21T05:11:42.515Z,1804.00
2018-06-21T05:12:42.540Z,1804.00
2018-06-21T05:13:42.569Z,1772.00
2018-06-21T05:14:42.598Z,1744.00
2018-06-21T05:15:42.625Z,1712.00
2018-06-21T05:16:42.654Z,1696.00
2018-06-21T05:17:42.682Z,1668.00
2018-06-21T05:18:42.711Z,1644.00
2018-06-21T05:19:42.740Z,1620.00
2018-06-21T05:20:42.766Z,1600.00
2018-06-21T05:21:42.794Z,1576.00
2018-06-21T05:22:42.826Z,1552.00
2018-06-21T05:23:42.855Z,1532.00
2018-06-21T05:24:42.878Z,1512.00
2018-06-21T05:25:42.918Z,1500.00
2018-06-21T05:26:42.930Z,1472.00
2018-06-21T05:27:42.959Z,1460.00
2018-06-21T05:28:42.986Z,1440.00
2018-06-21T05:29:43.015Z,1420.00
2018-06-21T05:30:43.048Z,1400.00
2018-06-21T05:31:43.111Z,1376.00
2018-06-21T05:32:43.099Z,1348.00
2018-06-21T05:33:43.128Z,1328.00
2018-06-21T05:34:43.157Z,1296.00
2018-06-21T05:35:43.185Z,1276.00
2018-06-21T05:36:43.213Z,1244.00
2018-06-21T05:37:43.271Z,1216.00
2018-06-21T05:38:43.269Z,1176.00
2018-06-21T05:39:43.298Z,1148.00
2018-06-21T05:40:43.325Z,1112.00
2018-06-21T05:41:43.390Z,1076.00
2018-06-21T05:42:43.382Z,1044.00
2018-06-21T05:43:43.459Z,1020.00
2018-06-21T05:44:43.463Z,1004.00
2018-06-21T05:45:43.467Z,976.00
2018-06-21T05:46:43.496Z,924.00
2018-06-21T05:47:43.524Z,828.00
2018-06-21T05:48:43.554Z,848.00
2018-06-21T05:49:43.580Z,892.00
2018-06-21T05:50:43.608Z,892.00
2018-06-21T05:51:43.650Z,876.00
2018-06-21T05:52:43.665Z,860.00
2018-06-21T05:53:43.726Z,828.00
2018-06-21T05:54:43.728Z,636.00
2018-06-21T05:55:43.750Z,556.00
2018-06-21T05:56:43.869Z,428.00
2018-06-21T05:57:43.808Z,432.00
2018-06-21T05:58:43.835Z,424.00
2018-06-21T05:59:43.864Z,424.00
2018-06-21T06:00:43.891Z,440.00
2018-06-21T06:01:43.919Z,428.00
2018-06-21T06:02:43.948Z,420.00
2018-06-21T06:03:43.977Z,432.00
2018-06-21T06:04:44.006Z,448.00
2018-06-21T06:05:44.033Z,456.00
2018-06-21T06:06:44.078Z,468.00
2018-06-21T06:07:44.090Z,496.00
2018-06-21T06:08:44.117Z,580.00
2018-06-21T06:09:44.146Z,604.00
2018-06-21T06:10:44.202Z,608.00
2018-06-21T06:11:44.203Z,596.00
2018-06-21T06:12:44.231Z,608.00
2018-06-21T06:13:44.259Z,648.00
2018-06-21T06:14:44.288Z,668.00
2018-06-21T06:15:44.316Z,652.00
2018-06-21T06:16:44.379Z,640.00
2018-06-21T06:17:44.372Z,624.00
2018-06-21T06:18:44.400Z,608.00
2018-06-21T06:19:44.429Z,596.00
2018-06-21T06:20:44.462Z,584.00
2018-06-21T06:21:44.489Z,572.00
2018-06-21T06:22:44.527Z,560.00
2018-06-21T06:23:44.542Z,552.00
2018-06-21T06:24:44.572Z,540.00
2018-06-21T06:25:44.602Z,532.00
2018-06-21T06:26:44.627Z,524.00
2018-06-21T06:27:44.685Z,512.00
2018-06-21T06:28:44.747Z,504.00
2018-06-21T06:29:44.710Z,500.00
2018-06-21T06:30:44.741Z,484.00
2018-06-21T06:31:44.767Z,480.00
2018-06-21T06:32:44.797Z,468.00
2018-06-21T06:33:44.824Z,460.00
2018-06-21T06:34:44.953Z,452.00
2018-06-21T06:35:44.884Z,444.00
2018-06-21T06:36:44.910Z,436.00
2018-06-21T06:37:44.935Z,428.00
2018-06-21T06:38:44.964Z,420.00
2018-06-21T06:39:44.992Z,408.00
2018-06-21T06:40:45.030Z,404.00
2018-06-21T06:41:45.049Z,396.00
2018-06-21T06:42:45.119Z,388.00
2018-06-21T06:43:45.105Z,380.00
2018-06-21T06:44:45.143Z,372.00
2018-06-21T06:45:45.162Z,364.00
2018-06-21T06:46:45.189Z,356.00
2018-06-21T06:47:45.218Z,348.00
2018-06-21T06:48:45.245Z,340.00
2018-06-21T06:49:45.273Z,336.00
2018-06-21T06:50:45.301Z,324.00
2018-06-21T06:51:45.329Z,316.00
2018-06-21T06:52:45.357Z,308.00
2018-06-21T06:53:45.386Z,304.00
2018-06-21T06:54:45.483Z,296.00
2018-06-21T06:55:45.443Z,288.00
2018-06-21T06:56:45.469Z,280.00
2018-06-21T06:57:45.515Z,276.00
2018-06-21T06:58:45.551Z,272.00
2018-06-21T06:59:45.555Z,264.00
2018-06-21T07:00:45.582Z,260.00
2018-06-21T07:01:45.611Z,252.00
2018-06-21T07:02:45.639Z,248.00
2018-06-21T07:03:45.669Z,240.00
2018-06-21T07:04:45.695Z,236.00
2018-06-21T07:05:45.769Z,236.00
2018-06-21T07:06:45.751Z,228.00
2018-06-21T07:07:45.779Z,228.00
2018-06-21T07:08:45.807Z,224.00
2018-06-21T07:09:45.835Z,216.00
2018-06-21T07:10:45.884Z,216.00
2018-06-21T07:11:45.891Z,212.00
2018-06-21T07:12:45.919Z,212.00
2018-06-21T07:13:45.947Z,216.00
2018-06-21T07:14:45.977Z,212.00
2018-06-21T07:15:46.002Z,212.00
2018-06-21T07:16:46.037Z,208.00
2018-06-21T07:17:46.058Z,212.00
2018-06-21T07:18:46.087Z,208.00
2018-06-21T07:19:46.119Z,208.00
2018-06-21T07:20:46.142Z,208.00
2018-06-21T07:21:46.173Z,208.00
2018-06-21T07:22:46.213Z,204.00
2018-06-21T07:23:46.226Z,212.00
2018-06-21T07:24:46.254Z,208.00
2018-06-21T07:25:46.282Z,208.00
2018-06-21T07:26:46.311Z,208.00
2018-06-21T07:27:46.338Z,208.00
2018-06-21T07:28:46.366Z,212.00
2018-06-21T07:29:46.395Z,208.00
2018-06-21T07:30:46.424Z,208.00
2018-06-21T07:31:46.450Z,204.00
2018-06-21T07:32:46.478Z,204.00
2018-06-21T07:33:46.506Z,204.00
2018-06-21T07:34:46.535Z,204.00
2018-06-21T07:35:46.562Z,200.00
2018-06-21T07:36:46.590Z,200.00
2018-06-21T07:37:46.618Z,196.00
2018-06-21T07:38:46.646Z,192.00
2018-06-21T07:39:46.681Z,188.00
2018-06-21T07:40:46.701Z,192.00
2018-06-21T07:41:46.730Z,196.00
2018-06-21T07:42:46.758Z,192.00
2018-06-21T07:43:46.785Z,192.00
2018-06-21T07:44:46.859Z,188.00
2018-06-21T07:45:46.841Z,184.00
2018-06-21T07:46:46.905Z,184.00
2018-06-21T07:47:46.897Z,184.00
2018-06-21T07:48:46.925Z,184.00
2018-06-21T07:49:46.952Z,184.00
2018-06-21T07:50:46.981Z,188.00
2018-06-21T07:51:47.009Z,188.00
2018-06-21T07:52:47.036Z,184.00
2018-06-21T07:53:47.086Z,184.00
2018-06-21T07:54:47.093Z,184.00
2018-06-21T07:55:47.120Z,188.00
2018-06-21T07:56:47.177Z,188.00
2018-06-21T07:57:47.178Z,192.00
2018-06-21T07:58:47.203Z,196.00
2018-06-21T07:59:47.231Z,196.00
2018-06-21T08:00:47.258Z,188.00
2018-06-21T08:01:47.286Z,188.00
2018-06-21T08:02:47.314Z,188.00
2018-06-21T08:03:47.346Z,184.00
2018-06-21T08:04:47.373Z,188.00
2018-06-21T08:05:47.397Z,184.00
2018-06-21T08:06:47.426Z,188.00
2018-06-21T08:07:47.470Z,188.00
2018-06-21T08:08:47.480Z,184.00
2018-06-21T08:09:47.512Z,184.00
2018-06-21T08:10:47.537Z,188.00
2018-06-21T08:11:47.565Z,188.00
2018-06-21T08:12:47.611Z,192.00
2018-06-21T08:13:47.649Z,188.00
2018-06-21T08:14:47.648Z,188.00
2018-06-21T08:15:47.676Z,192.00
2018-06-21T08:16:47.703Z,188.00
2018-06-21T08:17:47.771Z,188.00
2018-06-21T08:18:47.759Z,188.00
2018-06-21T08:19:47.787Z,188.00
2018-06-21T08:20:47.842Z,188.00
2018-06-21T08:21:47.843Z,188.00
2018-06-21T08:22:47.871Z,188.00
2018-06-21T08:23:47.899Z,188.00
2018-06-21T08:24:47.926Z,196.00
2018-06-21T08:25:47.957Z,196.00
2018-06-21T08:26:48.034Z,200.00
2018-06-21T08:27:48.012Z,196.00
2018-06-21T08:28:48.040Z,192.00
2018-06-21T08:29:48.065Z,192.00
2018-06-21T08:30:48.093Z,188.00
2018-06-21T08:31:48.121Z,188.00
2018-06-21T08:32:48.148Z,188.00
2018-06-21T08:33:48.176Z,188.00
2018-06-21T08:34:48.204Z,188.00
2018-06-21T08:35:48.233Z,188.00
2018-06-21T08:36:48.264Z,188.00
2018-06-21T08:37:48.288Z,188.00
2018-06-21T08:38:48.389Z,188.00
2018-06-21T08:39:48.344Z,188.00
2018-06-21T08:40:48.371Z,188.00
2018-06-21T08:41:48.399Z,188.00
2018-06-21T08:42:48.427Z,184.00
2018-06-21T08:43:48.455Z,184.00
2018-06-21T08:44:48.482Z,188.00
2018-06-21T08:45:48.550Z,188.00
2018-06-21T08:46:48.538Z,192.00
2018-06-21T08:47:48.565Z,188.00
2018-06-21T08:48:48.594Z,192.00
2018-06-21T08:49:48.621Z,188.00
2018-06-21T08:50:48.649Z,188.00
2018-06-21T08:51:48.703Z,188.00
2018-06-21T08:52:48.704Z,192.00
2018-06-21T08:53:48.733Z,192.00
2018-06-21T08:54:48.768Z,188.00
2018-06-21T08:55:48.789Z,188.00
2018-06-21T08:56:48.816Z,188.00
2018-06-21T08:57:48.844Z,188.00
2018-06-21T08:58:48.872Z,184.00
2018-06-21T08:59:48.917Z,188.00
2018-06-21T09:00:48.926Z,184.00
2018-06-21T09:01:48.954Z,184.00
2018-06-21T09:02:48.996Z,184.00
2018-06-21T09:03:49.031Z,188.00
2018-06-21T09:04:49.037Z,184.00
2018-06-21T09:05:49.073Z,184.00
2018-06-21T09:06:49.135Z,188.00
2018-06-21T09:07:49.121Z,188.00
2018-06-21T09:08:49.148Z,188.00
2018-06-21T09:09:49.213Z,188.00
2018-06-21T09:10:49.236Z,184.00
2018-06-21T09:11:49.232Z,184.00
2018-06-21T09:12:49.262Z,184.00
2018-06-21T09:13:49.287Z,180.00
2018-06-21T09:14:49.314Z,184.00
2018-06-21T09:15:49.344Z,184.00
2018-06-21T09:16:49.370Z,180.00
2018-06-21T09:17:49.401Z,184.00
2018-06-21T09:18:49.426Z,184.00
2018-06-21T09:19:49.475Z,180.00
2018-06-21T09:20:49.482Z,180.00
2018-06-21T09:21:49.512Z,184.00
2018-06-21T09:22:49.537Z,184.00
2018-06-21T09:23:49.566Z,184.00
2018-06-21T09:24:49.594Z,184.00
2018-06-21T09:25:49.621Z,188.00
2018-06-21T09:26:49.648Z,184.00
2018-06-21T09:27:49.677Z,184.00
2018-06-21T09:28:49.704Z,188.00
2018-06-21T09:29:49.732Z,188.00
2018-06-21T09:30:49.760Z,192.00
2018-06-21T09:31:49.788Z,188.00
2018-06-21T09:32:49.816Z,188.00
2018-06-21T09:33:49.945Z,188.00
2018-06-21T09:34:49.873Z,188.00
2018-06-21T09:35:49.901Z,188.00
2018-06-21T09:36:49.927Z,192.00
2018-06-21T09:37:49.955Z,192.00
2018-06-21T09:38:49.982Z,188.00
2018-06-21T09:39:50.011Z,192.00
2018-06-21T09:40:50.042Z,192.00
2018-06-21T09:41:50.092Z,192.00
2018-06-21T09:42:50.097Z,192.00
2018-06-21T09:44:03.405Z,192.00
2018-06-21T09:44:50.151Z,196.00
2018-06-21T09:45:50.177Z,192.00
2018-06-21T09:46:50.205Z,196.00
2018-06-21T09:47:50.233Z,196.00
2018-06-21T09:48:50.260Z,196.00
2018-06-21T09:49:50.309Z,196.00
2018-06-21T09:50:50.316Z,196.00
2018-06-21T09:51:50.344Z,200.00
2018-06-21T09:52:50.371Z,196.00
2018-06-21T09:53:50.399Z,192.00
2018-06-21T09:54:50.464Z,196.00
2018-06-21T09:55:50.459Z,200.00
2018-06-21T09:56:50.483Z,200.00
2018-06-21T09:57:50.555Z,200.00
2018-06-21T09:58:50.539Z,200.00
2018-06-21T09:59:50.567Z,200.00
2018-06-21T10:00:50.595Z,196.00
2018-06-21T10:01:50.641Z,196.00
2018-06-21T10:02:50.695Z,196.00
2018-06-21T10:03:50.678Z,200.00
2018-06-21T10:04:50.706Z,196.00
2018-06-21T10:05:50.734Z,196.00
2018-06-21T10:06:50.766Z,200.00
2018-06-21T10:07:50.791Z,196.00
2018-06-21T10:08:50.818Z,200.00
2018-06-21T10:09:50.847Z,196.00
2018-06-21T10:10:50.873Z,196.00
2018-06-21T10:11:50.901Z,196.00
2018-06-21T10:12:50.930Z,196.00
2018-06-21T10:13:50.956Z,196.00
2018-06-21T10:14:50.985Z,196.00
2018-06-21T10:15:51.054Z,196.00
2018-06-21T10:16:51.039Z,196.00
2018-06-21T10:17:51.068Z,196.00
2018-06-21T10:18:51.127Z,192.00
2018-06-21T10:19:51.180Z,196.00
2018-06-21T10:20:51.152Z,196.00
2018-06-21T10:21:51.180Z,192.00
2018-06-21T10:22:51.207Z,192.00
2018-06-21T10:23:51.279Z,192.00
2018-06-21T10:24:51.265Z,192.00
2018-06-21T10:25:51.293Z,188.00
2018-06-21T10:26:51.319Z,192.00
2018-06-21T10:27:51.347Z,192.00
2018-06-21T10:28:51.374Z,192.00
2018-06-21T10:29:51.402Z,192.00
2018-06-21T10:30:51.430Z,192.00
2018-06-21T10:31:51.464Z,192.00
2018-06-21T10:32:51.486Z,192.00
2018-06-21T10:33:51.514Z,188.00
2018-06-21T10:34:51.541Z,192.00
2018-06-21T10:35:51.600Z,192.00
2018-06-21T10:36:51.599Z,188.00
2018-06-21T10:37:51.627Z,192.00
2018-06-21T10:38:51.653Z,188.00
2018-06-21T10:39:51.681Z,192.00
2018-06-21T10:40:51.709Z,192.00
2018-06-21T10:41:51.737Z,196.00
2018-06-21T10:42:51.766Z,192.00
2018-06-21T10:43:51.793Z,196.00
2018-06-21T10:44:51.820Z,196.00
2018-06-21T10:45:51.869Z,192.00
2018-06-21T10:46:51.901Z,188.00
2018-06-21T10:47:51.912Z,184.00
2018-06-21T10:48:51.932Z,180.00
2018-06-21T10:49:51.959Z,180.00
2018-06-21T10:50:51.988Z,188.00
2018-06-21T10:51:52.016Z,188.00
2018-06-21T10:52:52.044Z,196.00
2018-06-21T10:53:52.071Z,196.00
2018-06-21T10:54:52.100Z,208.00
2018-06-21T10:55:52.134Z,208.00
2018-06-21T10:56:52.155Z,204.00
2018-06-21T10:57:52.183Z,212.00
2018-06-21T10:58:52.212Z,208.00
2018-06-21T10:59:52.240Z,204.00
2018-06-21T11:00:52.266Z,216.00
2018-06-21T11:01:52.295Z,224.00
2018-06-21T11:02:52.323Z,232.00
2018-06-21T11:03:52.352Z,236.00
2018-06-21T11:04:52.379Z,164.00
2018-06-21T11:05:52.408Z,168.00
2018-06-21T11:06:52.435Z,168.00
2018-06-21T11:07:52.463Z,180.00
2018-06-21T11:08:52.490Z,184.00
2018-06-21T11:09:52.518Z,200.00
2018-06-21T11:10:52.546Z,240.00
2018-06-21T11:11:52.574Z,216.00
2018-06-21T11:12:52.601Z,212.00
2018-06-21T11:13:52.629Z,216.00
2018-06-21T11:14:52.698Z,228.00
2018-06-21T11:15:52.685Z,228.00
2018-06-21T11:16:52.720Z,176.00
2018-06-21T11:17:52.741Z,212.00
2018-06-21T11:18:52.793Z,128.00
2018-06-21T11:19:52.799Z,124.00
2018-06-21T11:20:52.823Z,120.00
2018-06-21T11:21:52.852Z,124.00
2018-06-21T11:22:52.911Z,140.00
2018-06-21T11:23:52.908Z,116.00
2018-06-21T11:24:52.935Z,144.00
2018-06-21T11:25:52.963Z,156.00
2018-06-21T11:26:52.992Z,116.00
2018-06-21T11:27:53.118Z,116.00
2018-06-21T11:28:53.047Z,120.00
2018-06-21T11:29:53.076Z,156.00
2018-06-21T11:30:53.103Z,196.00
2018-06-21T11:31:53.134Z,216.00
2018-06-21T11:32:53.158Z,216.00
2018-06-21T11:33:53.187Z,228.00
2018-06-21T11:34:53.215Z,232.00
2018-06-21T11:35:53.246Z,240.00
2018-06-21T11:36:53.270Z,236.00
2018-06-21T11:37:53.298Z,208.00
2018-06-21T11:38:53.330Z,224.00
2018-06-21T11:39:53.355Z,188.00
2018-06-21T11:40:53.398Z,192.00
2018-06-21T11:41:53.410Z,200.00
2018-06-21T11:42:53.438Z,196.00
2018-06-21T11:43:53.466Z,184.00
2018-06-21T11:44:53.494Z,196.00
2018-06-21T11:45:53.522Z,192.00
2018-06-21T11:46:53.550Z,248.00
2018-06-21T11:47:53.581Z,240.00
2018-06-21T11:48:53.606Z,216.00
2018-06-21T11:49:53.634Z,212.00
2018-06-21T11:50:53.661Z,232.00
2018-06-21T11:51:53.689Z,248.00
2018-06-21T11:52:53.717Z,276.00
2018-06-21T11:53:53.746Z,272.00
2018-06-21T11:54:53.773Z,276.00
2018-06-21T11:55:53.805Z,248.00
2018-06-21T11:56:53.829Z,252.00
2018-06-21T11:57:53.856Z,248.00
2018-06-21T11:58:53.885Z,252.00
2018-06-21T11:59:53.913Z,260.00
2018-06-21T12:00:53.940Z,268.00
2018-06-21T12:01:53.994Z,288.00
2018-06-21T12:02:53.998Z,300.00
2018-06-21T12:03:54.027Z,300.00
2018-06-21T12:04:54.051Z,300.00
2018-06-21T12:05:54.080Z,292.00
2018-06-21T12:06:54.129Z,288.00
2018-06-21T12:07:54.140Z,296.00
2018-06-21T12:08:54.164Z,308.00
2018-06-21T12:09:54.192Z,316.00
2018-06-21T12:10:54.221Z,336.00
2018-06-21T12:11:54.250Z,328.00
2018-06-21T12:12:54.275Z,332.00
2018-06-21T12:13:54.306Z,352.00
2018-06-21T12:14:54.332Z,364.00
2018-06-21T12:15:54.359Z,388.00
2018-06-21T12:16:54.387Z,380.00
2018-06-21T12:17:54.447Z,360.00
2018-06-21T12:18:54.443Z,348.00
2018-06-21T12:19:54.470Z,360.00
2018-06-21T12:20:54.499Z,344.00
2018-06-21T12:21:54.526Z,328.00
2018-06-21T12:22:54.554Z,328.00
2018-06-21T12:23:54.582Z,320.00
2018-06-21T12:24:54.612Z,324.00
2018-06-21T12:25:54.647Z,324.00
2018-06-21T12:26:54.666Z,324.00
2018-06-21T12:27:54.698Z,324.00